Spokane, Washington
Current Conditions -  °F | °C
As of 12:53 AM on Wednesday 28 Jan 2015 (Local Time) from KSFF Reporting Station
Overcast Overcast  
Wind Chill:   Ceiling: 600
Heat Index:   Visibility: 10mi
Dew Point:   Wind: 3mph
Humidity: 89%   Direction: 220°SW
Pressure: 30.2"   Gusts: NA
Location:  47.66°N, 117.41°W
Report Text: KSFF 280853Z AUTO 22003KT 10SM OVC006 02/01 A3020 RMK AO2 SLP238 T00220006 51021
Loading
Personal Weather Stations






























Interactive Weather Map New forecast layout! Learn more

10-Day Weather Forecast

Advertisements
Track Severe Weather on mobile